createdAt,value
2022-12-17T00:00:44.851Z,3.83
2022-12-17T00:01:47.375Z,3.44
2022-12-17T00:02:50.117Z,3.45
2022-12-17T00:03:53.457Z,3.48
2022-12-17T00:04:57.823Z,3.92
2022-12-17T00:06:09.002Z,3.87
2022-12-17T00:07:12.185Z,2.66
2022-12-17T00:08:14.800Z,3.97
2022-12-17T00:09:17.425Z,3.80
2022-12-17T00:10:19.994Z,3.38
2022-12-17T00:11:22.971Z,4.53
2022-12-17T00:12:25.534Z,4.25
2022-12-17T00:13:28.102Z,4.04
2022-12-17T00:14:30.584Z,3.97
2022-12-17T00:15:33.132Z,4.00
2022-12-17T00:16:35.857Z,3.99
2022-12-17T00:17:38.572Z,3.92
2022-12-17T00:18:41.243Z,4.39
2022-12-17T00:19:43.910Z,3.63
2022-12-17T00:20:46.587Z,4.25
2022-12-17T00:21:49.162Z,3.93
2022-12-17T00:22:51.823Z,3.17
2022-12-17T00:23:56.223Z,3.08
2022-12-17T00:24:59.401Z,2.94
2022-12-17T00:26:02.794Z,3.07
2022-12-17T00:27:05.671Z,2.47
2022-12-17T00:28:08.640Z,2.82
2022-12-17T00:29:11.431Z,2.88
2022-12-17T00:30:13.994Z,2.72
2022-12-17T00:31:16.818Z,2.58
2022-12-17T00:32:19.558Z,3.12
2022-12-17T00:33:22.317Z,2.99
2022-12-17T00:34:25.280Z,3.12
2022-12-17T00:35:28.062Z,3.29
2022-12-17T00:36:31.348Z,2.70
2022-12-17T00:37:34.535Z,2.76
2022-12-17T00:38:37.302Z,2.13
2022-12-17T00:39:40.568Z,2.50
2022-12-17T00:40:43.567Z,2.44
2022-12-17T00:41:46.335Z,2.27
2022-12-17T00:42:49.002Z,2.62
2022-12-17T00:43:51.987Z,2.62
2022-12-17T00:44:54.970Z,2.96
2022-12-17T00:45:59.167Z,2.92
2022-12-17T00:47:02.135Z,2.75
2022-12-17T00:48:05.023Z,3.45
2022-12-17T00:49:07.793Z,3.59
2022-12-17T00:50:10.565Z,3.38
2022-12-17T00:51:13.644Z,3.41
2022-12-17T00:52:16.417Z,3.68
2022-12-17T00:53:19.393Z,3.69
2022-12-17T00:54:22.470Z,3.38
2022-12-17T00:55:25.242Z,4.37
2022-12-17T00:56:28.305Z,4.08
2022-12-17T00:57:31.283Z,3.64
2022-12-17T00:58:34.663Z,3.43
2022-12-17T00:59:37.848Z,3.47
2022-12-17T01:00:41.131Z,4.02
2022-12-17T01:01:44.689Z,3.59
2022-12-17T01:02:48.454Z,3.37
2022-12-17T01:03:51.496Z,3.72
2022-12-17T01:04:55.004Z,3.96
2022-12-17T01:05:59.413Z,4.17
2022-12-17T01:07:02.295Z,4.02
2022-12-17T01:08:05.066Z,4.07
2022-12-17T01:09:08.255Z,3.89
2022-12-17T01:10:11.131Z,4.41
2022-12-17T01:11:13.994Z,4.26
2022-12-17T01:12:16.873Z,4.07
2022-12-17T01:13:19.746Z,4.49
2022-12-17T01:14:22.734Z,4.33
2022-12-17T01:15:25.694Z,3.96
2022-12-17T01:16:28.622Z,4.08
2022-12-17T01:17:31.449Z,4.10
2022-12-17T01:18:34.213Z,3.94
2022-12-17T01:19:36.884Z,4.32
2022-12-17T01:20:39.553Z,3.77
2022-12-17T01:21:42.218Z,3.55
2022-12-17T01:22:44.811Z,3.44
2022-12-17T01:23:47.270Z,3.52
2022-12-17T01:24:49.945Z,3.12
2022-12-17T01:25:52.500Z,3.58
2022-12-17T01:26:55.163Z,3.94
2022-12-17T01:27:59.060Z,3.66
2022-12-17T01:29:02.049Z,3.95
2022-12-17T01:30:05.121Z,4.31
2022-12-17T01:31:08.372Z,4.69
2022-12-17T01:32:11.264Z,4.11
2022-12-17T01:33:14.153Z,4.25
2022-12-17T01:34:17.031Z,4.36
2022-12-17T01:35:20.317Z,4.05
2022-12-17T01:36:23.180Z,3.87
2022-12-17T01:37:26.354Z,4.37
2022-12-17T01:38:29.756Z,4.11
2022-12-17T01:39:33.233Z,3.82
2022-12-17T01:40:36.556Z,4.12
2022-12-17T01:41:39.306Z,3.73
2022-12-17T01:42:42.199Z,4.42
2022-12-17T01:43:45.053Z,3.91
2022-12-17T01:44:47.825Z,4.35
2022-12-17T01:45:50.956Z,4.55
2022-12-17T01:46:54.178Z,4.41
2022-12-17T01:47:57.361Z,4.08
2022-12-17T01:49:01.055Z,4.30
2022-12-17T01:50:04.239Z,4.73
2022-12-17T01:51:07.211Z,4.42
2022-12-17T01:52:10.391Z,4.50
2022-12-17T01:53:13.363Z,4.38
2022-12-17T01:54:16.558Z,4.18
2022-12-17T01:55:19.724Z,4.75
2022-12-17T01:56:23.425Z,4.57
2022-12-17T01:57:26.711Z,4.93
2022-12-17T01:58:29.892Z,4.95
2022-12-17T01:59:33.376Z,5.08
2022-12-17T02:00:36.241Z,4.44
2022-12-17T02:01:39.495Z,4.48
2022-12-17T02:02:42.788Z,4.79
2022-12-17T02:03:46.207Z,4.35
2022-12-17T02:04:49.289Z,3.98
2022-12-17T02:05:52.182Z,2.96
2022-12-17T02:06:55.361Z,3.25
2022-12-17T02:07:58.233Z,3.49
2022-12-17T02:09:01.109Z,3.49
2022-12-17T02:10:03.881Z,2.82
2022-12-17T02:11:06.864Z,3.27
2022-12-17T02:12:09.734Z,3.02
2022-12-17T02:13:12.524Z,3.36
2022-12-17T02:14:15.590Z,3.34
2022-12-17T02:15:18.252Z,2.82
2022-12-17T02:16:21.065Z,3.05
2022-12-17T02:17:23.991Z,3.30
2022-12-17T02:18:27.073Z,3.04
2022-12-17T02:19:29.552Z,3.10
2022-12-17T02:20:32.220Z,2.56
2022-12-17T02:21:34.991Z,2.42
2022-12-17T02:22:37.863Z,2.99
2022-12-17T02:23:40.531Z,2.81
2022-12-17T02:24:43.413Z,3.22
2022-12-17T02:25:46.292Z,3.39
2022-12-17T02:26:49.084Z,3.11
2022-12-17T02:27:52.218Z,2.75
2022-12-17T02:28:54.930Z,3.09
2022-12-17T02:29:57.791Z,3.42
2022-12-17T02:31:00.852Z,3.36
2022-12-17T02:32:03.940Z,4.36
2022-12-17T02:33:07.511Z,4.31
2022-12-17T02:34:10.421Z,3.23
2022-12-17T02:35:13.569Z,3.72
2022-12-17T02:36:16.552Z,3.46
2022-12-17T02:37:19.730Z,3.72
2022-12-17T02:38:22.626Z,3.80
2022-12-17T02:39:25.504Z,3.69
2022-12-17T02:40:28.274Z,3.65
2022-12-17T02:41:31.332Z,3.55
2022-12-17T02:42:34.029Z,3.52
2022-12-17T02:43:37.516Z,3.59
2022-12-17T02:44:40.290Z,3.92
2022-12-17T02:45:42.906Z,3.35
2022-12-17T02:46:45.540Z,3.75
2022-12-17T02:47:49.316Z,3.52
2022-12-17T02:48:52.092Z,3.70
2022-12-17T02:49:54.665Z,3.62
2022-12-17T02:50:58.244Z,3.82
2022-12-17T02:52:01.131Z,3.79
2022-12-17T02:53:04.186Z,3.63
2022-12-17T02:54:06.874Z,4.37
2022-12-17T02:55:09.835Z,4.28
2022-12-17T02:56:12.531Z,4.19
2022-12-17T02:57:15.484Z,3.93
2022-12-17T02:58:18.452Z,3.48
2022-12-17T02:59:21.224Z,3.55
2022-12-17T03:00:24.001Z,3.26
2022-12-17T03:01:27.152Z,3.44
2022-12-17T03:02:30.321Z,3.46
2022-12-17T03:03:33.145Z,3.42
2022-12-17T03:04:37.022Z,3.55
2022-12-17T03:05:47.280Z,4.04
2022-12-17T03:06:44.422Z,3.90
2022-12-17T03:07:47.190Z,3.92
2022-12-17T03:08:49.971Z,3.61
2022-12-17T03:09:52.935Z,3.43
2022-12-17T03:10:55.610Z,3.59
2022-12-17T03:11:58.484Z,3.63
2022-12-17T03:13:01.048Z,3.60
2022-12-17T03:14:03.924Z,3.67
2022-12-17T03:15:07.011Z,3.63
2022-12-17T03:16:09.879Z,3.68
2022-12-17T03:17:12.615Z,3.37
2022-12-17T03:18:15.531Z,3.25
2022-12-17T03:19:18.554Z,3.46
2022-12-17T03:20:21.996Z,3.88
2022-12-17T03:21:24.991Z,4.06
2022-12-17T03:22:27.764Z,3.91
2022-12-17T03:23:30.853Z,3.23
2022-12-17T03:24:33.694Z,2.97
2022-12-17T03:25:37.396Z,2.72
2022-12-17T03:26:40.671Z,3.59
2022-12-17T03:27:43.753Z,3.55
2022-12-17T03:28:46.987Z,3.25
2022-12-17T03:29:50.117Z,3.56
2022-12-17T03:30:53.674Z,3.76
2022-12-17T03:31:56.889Z,3.89
2022-12-17T03:33:00.077Z,4.49
2022-12-17T03:34:03.673Z,4.31
2022-12-17T03:35:06.841Z,4.77
2022-12-17T03:36:10.028Z,4.95
2022-12-17T03:37:12.904Z,5.14
2022-12-17T03:38:16.191Z,5.37
2022-12-17T03:39:18.893Z,5.08
2022-12-17T03:40:22.147Z,4.91
2022-12-17T03:41:25.541Z,4.82
2022-12-17T03:42:28.297Z,4.58
2022-12-17T03:43:31.069Z,4.12
2022-12-17T03:44:34.056Z,4.62
2022-12-17T03:45:37.143Z,4.72
2022-12-17T03:46:40.112Z,4.38
2022-12-17T03:47:42.982Z,4.45
2022-12-17T03:48:45.678Z,4.37
2022-12-17T03:49:48.418Z,4.72
2022-12-17T03:50:51.805Z,4.51
2022-12-17T03:51:55.192Z,4.11
2022-12-17T03:52:57.894Z,4.30
2022-12-17T03:54:00.737Z,3.62
2022-12-17T03:55:03.714Z,3.83
2022-12-17T03:56:06.314Z,3.61
2022-12-17T03:57:14.499Z,3.65
2022-12-17T03:58:13.393Z,3.39
2022-12-17T03:59:15.954Z,3.56
2022-12-17T04:00:18.811Z,3.63
2022-12-17T04:01:21.722Z,3.61
2022-12-17T04:02:25.011Z,3.99
2022-12-17T04:03:28.342Z,3.66
2022-12-17T04:04:31.333Z,3.56
2022-12-17T04:05:34.413Z,3.27
2022-12-17T04:06:37.692Z,3.25
2022-12-17T04:07:40.674Z,3.45
2022-12-17T04:08:43.842Z,2.86
2022-12-17T04:09:46.655Z,3.14
2022-12-17T04:10:49.731Z,3.47
2022-12-17T04:11:52.602Z,2.98
2022-12-17T04:12:55.840Z,3.28
2022-12-17T04:13:59.053Z,3.02
2022-12-17T04:15:02.433Z,2.67
2022-12-17T04:16:06.138Z,3.01
2022-12-17T04:17:09.714Z,3.55
2022-12-17T04:18:13.613Z,3.73
2022-12-17T04:19:16.895Z,3.47
2022-12-17T04:20:20.453Z,3.32
2022-12-17T04:21:23.973Z,3.36
2022-12-17T04:22:27.581Z,3.37
2022-12-17T04:23:30.952Z,3.66
2022-12-17T04:24:34.444Z,3.70
2022-12-17T04:25:38.027Z,3.62
2022-12-17T04:26:41.631Z,3.70
2022-12-17T04:27:45.324Z,3.69
2022-12-17T04:28:48.810Z,3.18
2022-12-17T04:29:52.201Z,3.33
2022-12-17T04:30:55.641Z,3.81
2022-12-17T04:31:59.176Z,3.95
2022-12-17T04:33:02.447Z,4.39
2022-12-17T04:34:05.819Z,4.66
2022-12-17T04:35:08.859Z,4.80
2022-12-17T04:36:12.310Z,3.94
2022-12-17T04:37:15.699Z,4.36
2022-12-17T04:38:18.803Z,4.55
2022-12-17T04:39:22.240Z,4.37
2022-12-17T04:40:25.448Z,4.14
2022-12-17T04:41:29.044Z,4.19
2022-12-17T04:42:32.034Z,4.55
2022-12-17T04:43:35.373Z,4.29
2022-12-17T04:44:38.381Z,4.86
2022-12-17T04:45:41.466Z,4.59
2022-12-17T04:46:44.507Z,4.49
2022-12-17T04:47:47.721Z,4.65
2022-12-17T04:48:50.702Z,4.26
2022-12-17T04:49:53.774Z,3.65
2022-12-17T04:50:57.173Z,3.97
2022-12-17T04:52:00.457Z,4.15
2022-12-17T04:53:03.631Z,4.15
2022-12-17T04:54:07.124Z,3.92
2022-12-17T04:55:10.505Z,3.89
2022-12-17T04:56:13.894Z,3.88
2022-12-17T04:57:17.385Z,3.89
2022-12-17T04:58:20.562Z,3.59
2022-12-17T04:59:23.644Z,3.09
2022-12-17T05:00:26.929Z,2.96
2022-12-17T05:01:30.462Z,2.63
2022-12-17T05:02:36.035Z,2.97
2022-12-17T05:03:39.284Z,3.21
2022-12-17T05:04:43.240Z,3.45
2022-12-17T05:05:46.627Z,3.65
2022-12-17T05:06:49.768Z,3.31
2022-12-17T05:07:52.886Z,4.03
2022-12-17T05:08:55.761Z,4.05
2022-12-17T05:09:59.047Z,4.06
2022-12-17T05:11:02.503Z,4.16
2022-12-17T05:12:05.684Z,4.31
2022-12-17T05:13:09.208Z,4.38
2022-12-17T05:14:12.989Z,4.44
2022-12-17T05:15:16.259Z,4.46
2022-12-17T05:16:19.667Z,4.56
2022-12-17T05:17:22.750Z,4.98
2022-12-17T05:18:26.046Z,5.45
2022-12-17T05:19:29.214Z,4.74
2022-12-17T05:20:32.808Z,5.02
2022-12-17T05:21:36.131Z,4.64
2022-12-17T05:22:39.217Z,4.38
2022-12-17T05:23:42.260Z,4.39
2022-12-17T05:24:45.549Z,3.82
2022-12-17T05:25:48.418Z,4.28
2022-12-17T05:26:52.307Z,4.71
2022-12-17T05:27:56.310Z,4.68
2022-12-17T05:28:59.699Z,4.64
2022-12-17T05:30:03.090Z,4.59
2022-12-17T05:31:06.513Z,3.93
2022-12-17T05:32:09.960Z,4.75
2022-12-17T05:33:13.445Z,3.87
2022-12-17T05:34:16.732Z,3.44
2022-12-17T05:35:20.323Z,3.27
2022-12-17T05:36:23.709Z,3.59
2022-12-17T05:37:27.404Z,3.20
2022-12-17T05:38:30.647Z,3.34
2022-12-17T05:39:33.876Z,3.76
2022-12-17T05:40:36.844Z,2.91
2022-12-17T05:41:39.820Z,2.62
2022-12-17T05:42:43.124Z,2.31
2022-12-17T05:43:46.601Z,1.95
2022-12-17T05:44:49.882Z,1.81
2022-12-17T05:45:52.963Z,1.87
2022-12-17T05:46:56.460Z,2.15
2022-12-17T05:48:00.138Z,2.00
2022-12-17T05:49:03.225Z,1.86
2022-12-17T05:50:06.202Z,1.90
2022-12-17T05:51:09.382Z,2.03
2022-12-17T05:52:13.386Z,1.89
2022-12-17T05:53:16.358Z,1.86
2022-12-17T05:54:19.337Z,2.11
2022-12-17T05:55:22.523Z,1.96
2022-12-17T05:56:25.393Z,2.18
2022-12-17T05:57:28.370Z,1.76
2022-12-17T05:58:31.556Z,1.68
2022-12-17T05:59:34.913Z,1.91
2022-12-17T06:00:38.255Z,2.28
2022-12-17T06:01:41.598Z,2.25
2022-12-17T06:02:44.967Z,2.19
2022-12-17T06:03:48.778Z,2.19
2022-12-17T06:04:52.283Z,2.15
2022-12-17T06:05:55.463Z,2.49
2022-12-17T06:06:58.645Z,2.59
2022-12-17T06:08:01.602Z,2.78
2022-12-17T06:09:04.501Z,2.65
2022-12-17T06:10:07.373Z,2.56
2022-12-17T06:11:10.456Z,2.77
2022-12-17T06:12:13.844Z,2.88
2022-12-17T06:13:17.127Z,2.97
2022-12-17T06:14:20.816Z,3.06
2022-12-17T06:15:24.716Z,3.06
2022-12-17T06:16:28.410Z,3.05
2022-12-17T06:17:31.737Z,2.84
2022-12-17T06:18:34.777Z,3.14
2022-12-17T06:19:37.959Z,2.51
2022-12-17T06:20:41.445Z,3.32
2022-12-17T06:21:44.624Z,2.57
2022-12-17T06:22:48.018Z,2.69
2022-12-17T06:23:51.416Z,2.69
2022-12-17T06:24:55.708Z,2.76
2022-12-17T06:25:58.996Z,2.78
2022-12-17T06:27:02.484Z,3.02
2022-12-17T06:28:06.071Z,2.91
2022-12-17T06:29:09.457Z,3.26
2022-12-17T06:30:18.448Z,3.02
2022-12-17T06:31:18.096Z,2.90
2022-12-17T06:32:21.348Z,2.81
2022-12-17T06:33:24.758Z,2.72
2022-12-17T06:34:28.343Z,2.96
2022-12-17T06:35:31.618Z,3.47
2022-12-17T06:36:35.002Z,3.34
2022-12-17T06:37:38.597Z,3.07
2022-12-17T06:38:41.988Z,3.04
2022-12-17T06:39:45.374Z,2.28
2022-12-17T06:40:48.656Z,2.33
2022-12-17T06:41:52.048Z,2.60
2022-12-17T06:42:55.839Z,2.59
2022-12-17T06:43:59.027Z,3.00
2022-12-17T06:45:02.509Z,2.51
2022-12-17T06:46:06.000Z,2.88
2022-12-17T06:47:09.682Z,3.34
2022-12-17T06:48:13.080Z,2.68
2022-12-17T06:49:16.468Z,3.16
2022-12-17T06:50:19.750Z,3.13
2022-12-17T06:51:22.828Z,3.44
2022-12-17T06:52:26.150Z,2.90
2022-12-17T06:53:29.303Z,2.68
2022-12-17T06:54:32.683Z,2.73
2022-12-17T06:55:36.067Z,2.80
2022-12-17T06:56:39.624Z,3.03
2022-12-17T06:57:46.235Z,2.88
2022-12-17T06:58:47.449Z,2.11
2022-12-17T06:59:50.742Z,2.64
2022-12-17T07:00:54.352Z,3.11
2022-12-17T07:01:57.868Z,2.65
2022-12-17T07:03:01.064Z,2.49
2022-12-17T07:04:04.390Z,2.82
2022-12-17T07:05:07.777Z,2.66
2022-12-17T07:06:11.063Z,2.43
2022-12-17T07:07:14.040Z,2.48
2022-12-17T07:08:17.528Z,2.58
2022-12-17T07:09:20.813Z,3.12
2022-12-17T07:10:23.900Z,2.43
2022-12-17T07:11:26.923Z,2.65
2022-12-17T07:12:30.051Z,2.79
2022-12-17T07:13:33.499Z,3.29
2022-12-17T07:14:36.619Z,2.41
2022-12-17T07:15:39.907Z,2.81
2022-12-17T07:16:43.018Z,2.90
2022-12-17T07:17:46.425Z,2.28
2022-12-17T07:18:49.451Z,2.23
2022-12-17T07:19:52.526Z,2.68
2022-12-17T07:20:56.222Z,2.55
2022-12-17T07:21:59.709Z,2.57
2022-12-17T07:23:03.153Z,2.37
2022-12-17T07:24:06.586Z,2.36
2022-12-17T07:25:09.974Z,2.20
2022-12-17T07:26:13.371Z,2.06
2022-12-17T07:27:16.744Z,2.11
2022-12-17T07:28:20.335Z,2.22
2022-12-17T07:29:24.032Z,1.96
2022-12-17T07:30:27.783Z,2.06
2022-12-17T07:31:31.589Z,2.31
2022-12-17T07:32:35.010Z,2.28
2022-12-17T07:33:38.904Z,1.89
2022-12-17T07:34:42.813Z,1.96
2022-12-17T07:35:46.321Z,1.91
2022-12-17T07:36:49.785Z,2.00
2022-12-17T07:37:53.480Z,2.47
2022-12-17T07:38:57.014Z,2.38
2022-12-17T07:40:00.261Z,2.55
2022-12-17T07:41:03.615Z,2.51
2022-12-17T07:42:06.824Z,2.68
2022-12-17T07:43:10.105Z,2.51
2022-12-17T07:44:13.185Z,2.87
2022-12-17T07:45:16.466Z,3.01
2022-12-17T07:46:20.004Z,2.88
2022-12-17T07:47:23.037Z,3.13
2022-12-17T07:48:25.810Z,3.24
2022-12-17T07:49:28.992Z,3.03
2022-12-17T07:50:31.867Z,3.39
2022-12-17T07:51:34.636Z,3.34
2022-12-17T07:52:37.622Z,3.76
2022-12-17T07:53:40.396Z,3.35
2022-12-17T07:54:43.161Z,3.66
2022-12-17T07:55:46.138Z,3.42
2022-12-17T07:56:48.932Z,3.95
2022-12-17T07:57:51.990Z,3.72
2022-12-17T07:58:54.975Z,3.44
2022-12-17T07:59:58.351Z,3.85
2022-12-17T08:01:01.563Z,3.78
2022-12-17T08:02:04.920Z,3.78
2022-12-17T08:03:08.585Z,3.88
2022-12-17T08:04:11.692Z,3.70
2022-12-17T08:05:14.975Z,3.60
2022-12-17T08:06:18.042Z,3.86
2022-12-17T08:07:20.830Z,4.31
2022-12-17T08:08:23.601Z,3.97
2022-12-17T08:09:26.476Z,3.83
2022-12-17T08:10:29.349Z,3.67
2022-12-17T08:11:32.246Z,3.83
2022-12-17T08:12:35.511Z,3.95
2022-12-17T08:13:39.226Z,4.12
2022-12-17T08:14:42.383Z,4.69
2022-12-17T08:15:45.569Z,4.00
2022-12-17T08:16:51.150Z,3.74
2022-12-17T08:17:55.313Z,3.68
2022-12-17T08:18:58.292Z,4.55
2022-12-17T08:20:01.373Z,4.62
2022-12-17T08:21:04.590Z,4.96
2022-12-17T08:22:08.551Z,4.17
2022-12-17T08:23:11.631Z,4.02
2022-12-17T08:24:14.702Z,3.88
2022-12-17T08:25:17.785Z,3.97
2022-12-17T08:26:20.864Z,3.28
2022-12-17T08:27:24.048Z,3.08
2022-12-17T08:28:49.661Z,2.97
2022-12-17T08:29:31.845Z,3.37
2022-12-17T08:30:35.138Z,3.32
2022-12-17T08:31:38.418Z,3.06
2022-12-17T08:32:41.493Z,3.87
2022-12-17T08:33:44.881Z,4.09
2022-12-17T08:34:47.844Z,3.79
2022-12-17T08:35:50.942Z,4.48
2022-12-17T08:36:54.013Z,4.52
2022-12-17T08:37:57.096Z,4.48
2022-12-17T08:39:00.383Z,4.87
2022-12-17T08:40:03.422Z,4.48
2022-12-17T08:41:06.544Z,4.79
2022-12-17T08:42:09.420Z,3.95
2022-12-17T08:43:12.702Z,3.88
2022-12-17T08:44:15.778Z,4.02
2022-12-17T08:45:19.061Z,4.16
2022-12-17T08:46:22.198Z,4.01
2022-12-17T08:47:25.427Z,3.85
2022-12-17T08:48:28.612Z,3.70
2022-12-17T08:49:32.198Z,3.95
2022-12-17T08:50:35.686Z,4.28
2022-12-17T08:51:39.175Z,4.32
2022-12-17T08:52:42.462Z,4.05
2022-12-17T08:53:45.647Z,4.62
2022-12-17T08:54:49.042Z,4.66
2022-12-17T08:55:52.318Z,4.94
2022-12-17T08:56:55.603Z,4.77
2022-12-17T08:58:00.214Z,4.86
2022-12-17T08:59:03.397Z,4.71
2022-12-17T09:00:06.069Z,4.57
2022-12-17T09:01:08.885Z,4.78
2022-12-17T09:02:12.177Z,4.57
2022-12-17T09:03:15.271Z,5.13
2022-12-17T09:04:18.183Z,5.38
2022-12-17T09:05:21.462Z,5.24
2022-12-17T09:06:24.646Z,5.17
2022-12-17T09:07:28.241Z,5.77
2022-12-17T09:08:32.032Z,5.83
2022-12-17T09:09:35.216Z,4.91
2022-12-17T09:10:38.808Z,5.19
2022-12-17T09:11:42.188Z,5.11
2022-12-17T09:12:45.577Z,5.52
2022-12-17T09:13:49.213Z,5.30
2022-12-17T09:14:52.457Z,5.42
2022-12-17T09:15:55.725Z,5.73
2022-12-17T09:16:59.011Z,5.81
2022-12-17T09:18:02.212Z,5.47
2022-12-17T09:19:05.489Z,5.52
2022-12-17T09:20:08.463Z,5.33
2022-12-17T09:21:11.544Z,5.54
2022-12-17T09:22:14.831Z,5.81
2022-12-17T09:23:17.813Z,6.04
2022-12-17T09:24:21.223Z,5.95
2022-12-17T09:25:24.170Z,6.32
2022-12-17T09:26:27.248Z,5.94
2022-12-17T09:27:30.330Z,5.88
2022-12-17T09:28:33.408Z,5.79
2022-12-17T09:29:36.588Z,6.38
2022-12-17T09:30:39.918Z,5.57
2022-12-17T09:31:42.963Z,6.30
2022-12-17T09:32:46.239Z,6.03
2022-12-17T09:33:49.521Z,6.02
2022-12-17T09:34:53.219Z,6.37
2022-12-17T09:35:56.298Z,6.37
2022-12-17T09:36:59.583Z,6.69
2022-12-17T09:38:02.656Z,6.38
2022-12-17T09:39:05.791Z,7.22
2022-12-17T09:40:09.638Z,9.94
2022-12-17T09:41:13.127Z,14.73
2022-12-17T09:42:16.821Z,17.00
2022-12-17T09:43:19.794Z,19.68
2022-12-17T09:44:23.079Z,18.77
2022-12-17T09:45:26.623Z,19.20
2022-12-17T09:46:29.590Z,20.08
2022-12-17T09:47:32.523Z,17.74
2022-12-17T09:48:35.725Z,16.57
2022-12-17T09:49:38.890Z,16.68
2022-12-17T09:50:42.171Z,15.91
2022-12-17T09:51:45.048Z,16.46
2022-12-17T09:52:48.945Z,15.80
2022-12-17T09:53:51.613Z,12.40
2022-12-17T09:55:00.838Z,11.68
2022-12-17T09:55:58.599Z,12.02
2022-12-17T09:57:01.265Z,11.59
2022-12-17T09:58:04.034Z,10.24
2022-12-17T09:59:06.706Z,10.38
2022-12-17T10:00:09.388Z,9.08
2022-12-17T10:01:12.449Z,8.88
2022-12-17T10:02:15.426Z,8.28
2022-12-17T10:03:18.583Z,7.48
2022-12-17T10:04:21.794Z,7.61
2022-12-17T10:05:24.877Z,7.85
2022-12-17T10:06:27.967Z,6.47
2022-12-17T10:07:30.931Z,6.46
2022-12-17T10:08:34.420Z,7.32
2022-12-17T10:09:37.395Z,6.87
2022-12-17T10:10:40.475Z,6.05
2022-12-17T10:11:43.862Z,5.83
2022-12-17T10:12:46.944Z,5.57
2022-12-17T10:13:49.716Z,5.34
2022-12-17T10:14:52.585Z,4.97
2022-12-17T10:15:55.547Z,4.58
2022-12-17T10:16:58.643Z,4.29
2022-12-17T10:18:01.424Z,4.14
2022-12-17T10:19:04.395Z,4.39
2022-12-17T10:20:07.064Z,3.97
2022-12-17T10:21:10.038Z,3.89
2022-12-17T10:22:13.325Z,4.38
2022-12-17T10:23:16.300Z,4.46
2022-12-17T10:24:19.290Z,4.21
2022-12-17T10:25:22.255Z,3.98
2022-12-17T10:26:25.132Z,3.98
2022-12-17T10:27:27.900Z,4.22
2022-12-17T10:28:30.981Z,4.12
2022-12-17T10:29:34.074Z,4.52
2022-12-17T10:30:36.841Z,4.68
2022-12-17T10:31:39.706Z,4.27
2022-12-17T10:32:42.890Z,4.03
2022-12-17T10:33:46.073Z,3.84
2022-12-17T10:34:49.156Z,3.92
2022-12-17T10:35:52.233Z,4.15
2022-12-17T10:36:55.105Z,3.57
2022-12-17T10:37:58.496Z,3.81
2022-12-17T10:39:01.379Z,3.41
2022-12-17T10:40:04.343Z,3.53
2022-12-17T10:41:07.223Z,3.16
2022-12-17T10:42:10.100Z,3.52
2022-12-17T10:43:13.375Z,3.45
2022-12-17T10:44:16.461Z,3.29
2022-12-17T10:45:19.227Z,3.35
2022-12-17T10:46:22.077Z,3.12
2022-12-17T10:47:24.781Z,3.56
2022-12-17T10:48:27.645Z,3.72
2022-12-17T10:49:30.417Z,3.58
2022-12-17T10:50:33.087Z,3.87
2022-12-17T10:51:35.860Z,3.78
2022-12-17T10:52:38.842Z,3.73
2022-12-17T10:53:42.019Z,3.85
2022-12-17T10:54:49.125Z,4.11
2022-12-17T10:55:49.531Z,4.07
2022-12-17T10:56:52.486Z,4.53
2022-12-17T10:57:55.585Z,4.42
2022-12-17T10:58:58.853Z,4.78
2022-12-17T11:00:01.932Z,5.32
2022-12-17T11:01:04.909Z,5.04
2022-12-17T11:02:07.869Z,4.92
2022-12-17T11:03:11.279Z,5.97
2022-12-17T11:04:14.659Z,6.61
2022-12-17T11:05:17.559Z,5.16
2022-12-17T11:06:20.509Z,5.14
2022-12-17T11:07:23.282Z,5.63
2022-12-17T11:08:26.263Z,6.00
2022-12-17T11:09:29.347Z,6.01
2022-12-17T11:10:32.212Z,5.63
2022-12-17T11:11:35.394Z,5.70
2022-12-17T11:12:38.166Z,4.94
2022-12-17T11:13:40.937Z,5.23
2022-12-17T11:14:43.917Z,5.70
2022-12-17T11:15:46.547Z,5.59
2022-12-17T11:16:49.255Z,4.62
2022-12-17T11:17:51.930Z,4.65
2022-12-17T11:18:54.696Z,4.80
2022-12-17T11:19:58.087Z,4.89
2022-12-17T11:21:00.857Z,5.12
2022-12-17T11:22:03.531Z,4.38
2022-12-17T11:23:06.299Z,4.62
2022-12-17T11:24:09.082Z,4.68
2022-12-17T11:25:11.845Z,5.08
2022-12-17T11:26:14.515Z,4.98
2022-12-17T11:27:17.188Z,4.60
2022-12-17T11:28:19.655Z,4.56
2022-12-17T11:29:22.319Z,4.39
2022-12-17T11:30:30.675Z,4.15
2022-12-17T11:31:29.517Z,4.07
2022-12-17T11:32:33.198Z,4.74
2022-12-17T11:33:36.771Z,4.63
2022-12-17T11:34:39.563Z,3.97
2022-12-17T11:35:42.333Z,4.63
2022-12-17T11:36:45.004Z,4.48
2022-12-17T11:37:47.873Z,4.53
2022-12-17T11:38:50.544Z,4.14
2022-12-17T11:39:53.317Z,4.32
2022-12-17T11:40:56.190Z,4.43
2022-12-17T11:41:58.868Z,6.08
2022-12-17T11:43:01.838Z,6.81
2022-12-17T11:44:05.056Z,6.48
2022-12-17T11:45:07.997Z,7.21
2022-12-17T11:46:11.217Z,6.98
2022-12-17T11:47:14.157Z,6.18
2022-12-17T11:48:17.060Z,5.23
2022-12-17T11:49:20.009Z,5.40
2022-12-17T11:50:22.880Z,5.15
2022-12-17T11:51:25.964Z,4.99
2022-12-17T11:52:29.344Z,5.14
2022-12-17T11:53:32.224Z,5.15
2022-12-17T11:54:35.097Z,5.07
2022-12-17T11:55:37.970Z,4.85
2022-12-17T11:56:41.049Z,4.42
2022-12-17T11:57:44.031Z,4.35
2022-12-17T11:58:46.801Z,4.22
2022-12-17T11:59:54.266Z,4.03
2022-12-17T12:00:54.187Z,4.79
2022-12-17T12:01:57.213Z,4.92
2022-12-17T12:03:00.315Z,4.99
2022-12-17T12:04:03.396Z,4.64
2022-12-17T12:05:06.303Z,4.96
2022-12-17T12:06:09.281Z,4.42
2022-12-17T12:07:12.363Z,4.97
2022-12-17T12:08:15.333Z,4.98
2022-12-17T12:09:18.111Z,4.86
2022-12-17T12:10:21.081Z,4.94
2022-12-17T12:11:29.746Z,4.97
2022-12-17T12:12:28.265Z,5.22
2022-12-17T12:13:30.935Z,4.93
2022-12-17T12:14:33.603Z,6.06
2022-12-17T12:15:36.689Z,7.48
2022-12-17T12:16:43.724Z,5.62
2022-12-17T12:17:44.172Z,4.22
2022-12-17T12:18:47.255Z,3.52
2022-12-17T12:19:50.129Z,3.39
2022-12-17T12:20:53.105Z,3.23
2022-12-17T12:21:55.889Z,3.42
2022-12-17T12:23:00.105Z,3.41
2022-12-17T12:24:03.166Z,3.28
2022-12-17T12:25:06.364Z,3.22
2022-12-17T12:26:09.526Z,3.18
2022-12-17T12:27:12.197Z,2.76
2022-12-17T12:28:15.380Z,3.07
2022-12-17T12:29:18.356Z,2.91
2022-12-17T12:30:21.229Z,3.21
2022-12-17T12:31:24.117Z,3.05
2022-12-17T12:32:26.879Z,3.28
2022-12-17T12:33:29.647Z,3.22
2022-12-17T12:34:32.417Z,2.43
2022-12-17T12:35:35.296Z,2.79
2022-12-17T12:36:38.070Z,2.78
2022-12-17T12:37:40.843Z,3.00
2022-12-17T12:38:46.423Z,3.02
2022-12-17T12:39:47.920Z,3.12
2022-12-17T12:40:50.590Z,3.29
2022-12-17T12:41:53.262Z,2.64
2022-12-17T12:42:56.037Z,3.03
2022-12-17T12:43:59.042Z,2.79
2022-12-17T12:45:01.781Z,2.67
2022-12-17T12:46:04.818Z,2.87
2022-12-17T12:47:07.530Z,3.25
2022-12-17T12:48:10.405Z,2.96
2022-12-17T12:49:13.893Z,3.12
2022-12-17T12:50:16.871Z,2.98
2022-12-17T12:51:19.746Z,3.22
2022-12-17T12:52:22.727Z,3.11
2022-12-17T12:53:25.602Z,3.48
2022-12-17T12:54:28.893Z,3.16
2022-12-17T12:55:31.771Z,3.72
2022-12-17T12:56:34.632Z,3.52
2022-12-17T12:57:37.401Z,3.46
2022-12-17T12:58:40.279Z,3.26
2022-12-17T12:59:43.357Z,3.15
2022-12-17T13:00:46.259Z,2.98
2022-12-17T13:01:49.416Z,2.85
2022-12-17T13:02:52.512Z,2.88
2022-12-17T13:03:55.468Z,3.11
2022-12-17T13:04:58.755Z,2.88
2022-12-17T13:06:01.631Z,3.39
2022-12-17T13:07:04.611Z,2.99
2022-12-17T13:08:07.284Z,2.45
2022-12-17T13:09:09.842Z,2.87
2022-12-17T13:10:13.126Z,3.10
2022-12-17T13:11:16.004Z,3.13
2022-12-17T13:12:18.886Z,2.86
2022-12-17T13:13:21.757Z,3.02
2022-12-17T13:14:24.529Z,3.08
2022-12-17T13:15:31.663Z,3.37
2022-12-17T13:16:31.813Z,3.24
2022-12-17T13:17:34.578Z,2.59
2022-12-17T13:18:37.772Z,2.94
2022-12-17T13:19:41.047Z,2.61
2022-12-17T13:20:44.143Z,2.27
2022-12-17T13:21:47.019Z,2.25
2022-12-17T13:22:49.878Z,2.27
2022-12-17T13:23:52.456Z,2.58
2022-12-17T13:24:55.323Z,2.70
2022-12-17T13:25:59.216Z,2.52
2022-12-17T13:27:05.268Z,2.70
2022-12-17T13:28:08.145Z,2.81
2022-12-17T13:29:10.973Z,2.72
2022-12-17T13:30:13.582Z,2.55
2022-12-17T13:31:16.300Z,2.65
2022-12-17T13:32:18.929Z,3.05
2022-12-17T13:33:21.600Z,3.35
2022-12-17T13:34:24.274Z,2.04
2022-12-17T13:35:26.932Z,2.76
2022-12-17T13:36:29.602Z,2.65
2022-12-17T13:37:32.373Z,2.74
2022-12-17T13:38:35.517Z,2.72
2022-12-17T13:39:38.327Z,2.25
2022-12-17T13:40:41.025Z,2.53
2022-12-17T13:41:43.873Z,2.88
2022-12-17T13:42:46.644Z,2.64
2022-12-17T13:43:49.619Z,2.13
2022-12-17T13:44:52.498Z,2.30
2022-12-17T13:45:55.333Z,2.82
2022-12-17T13:46:59.577Z,2.39
2022-12-17T13:48:02.245Z,2.52
2022-12-17T13:49:04.816Z,2.67
2022-12-17T13:50:33.271Z,2.76
2022-12-17T13:51:11.999Z,3.04
2022-12-17T13:52:14.975Z,2.57
2022-12-17T13:53:17.796Z,2.38
2022-12-17T13:54:20.942Z,2.52
2022-12-17T13:55:23.725Z,2.96
2022-12-17T13:56:26.576Z,2.41
2022-12-17T13:57:29.347Z,2.43
2022-12-17T13:58:32.045Z,2.89
2022-12-17T13:59:34.684Z,2.27